sensor_id;sensor_type;location;lat;lon;timestamp;P1;durP1;ratioP1;P2;durP2;ratioP2
14923;SDS011;7554;43.600;1.480;2023-07-13T00:01:53;2.37;;;1.70;;
14923;SDS011;7554;43.600;1.480;2023-07-13T00:04:22;3.43;;;2.17;;
14923;SDS011;7554;43.600;1.480;2023-07-13T00:06:51;3.63;;;1.90;;
14923;SDS011;7554;43.600;1.480;2023-07-13T00:09:19;4.63;;;1.87;;
14923;SDS011;7554;43.600;1.480;2023-07-13T00:11:49;3.20;;;1.80;;
14923;SDS011;7554;43.600;1.480;2023-07-13T00:14:18;3.07;;;1.90;;
14923;SDS011;7554;43.600;1.480;2023-07-13T00:16:47;3.60;;;1.90;;
14923;SDS011;7554;43.600;1.480;2023-07-13T00:19:15;3.90;;;1.83;;
14923;SDS011;7554;43.600;1.480;2023-07-13T00:21:42;2.70;;;1.70;;
14923;SDS011;7554;43.600;1.480;2023-07-13T00:24:10;4.33;;;2.00;;
14923;SDS011;7554;43.600;1.480;2023-07-13T00:26:40;4.43;;;2.00;;
14923;SDS011;7554;43.600;1.480;2023-07-13T00:29:11;4.40;;;1.83;;
14923;SDS011;7554;43.600;1.480;2023-07-13T00:31:38;5.77;;;2.00;;
14923;SDS011;7554;43.600;1.480;2023-07-13T00:34:07;3.27;;;1.70;;
14923;SDS011;7554;43.600;1.480;2023-07-13T00:36:35;4.57;;;1.80;;
14923;SDS011;7554;43.600;1.480;2023-07-13T00:39:02;2.10;;;1.57;;
14923;SDS011;7554;43.600;1.480;2023-07-13T00:41:30;3.80;;;2.03;;
14923;SDS011;7554;43.600;1.480;2023-07-13T00:43:58;5.50;;;2.40;;
14923;SDS011;7554;43.600;1.480;2023-07-13T00:46:26;2.23;;;1.70;;
14923;SDS011;7554;43.600;1.480;2023-07-13T00:48:56;3.40;;;1.70;;
14923;SDS011;7554;43.600;1.480;2023-07-13T00:51:30;2.67;;;1.80;;
14923;SDS011;7554;43.600;1.480;2023-07-13T00:54:02;2.73;;;1.80;;
14923;SDS011;7554;43.600;1.480;2023-07-13T00:56:32;2.77;;;1.77;;
14923;SDS011;7554;43.600;1.480;2023-07-13T00:59:00;3.57;;;1.77;;
14923;SDS011;7554;43.600;1.480;2023-07-13T01:01:30;2.80;;;1.50;;
14923;SDS011;7554;43.600;1.480;2023-07-13T01:03:58;3.33;;;1.50;;
14923;SDS011;7554;43.600;1.480;2023-07-13T01:06:25;3.70;;;1.80;;
14923;SDS011;7554;43.600;1.480;2023-07-13T01:08:54;2.40;;;1.60;;
14923;SDS011;7554;43.600;1.480;2023-07-13T01:11:22;3.10;;;1.63;;
14923;SDS011;7554;43.600;1.480;2023-07-13T01:13:50;3.87;;;1.73;;
14923;SDS011;7554;43.600;1.480;2023-07-13T01:16:19;1.97;;;1.40;;
14923;SDS011;7554;43.600;1.480;2023-07-13T01:18:51;5.20;;;1.90;;
14923;SDS011;7554;43.600;1.480;2023-07-13T01:21:20;3.53;;;1.50;;
14923;SDS011;7554;43.600;1.480;2023-07-13T01:23:47;5.30;;;1.73;;
14923;SDS011;7554;43.600;1.480;2023-07-13T01:26:15;3.63;;;1.83;;
14923;SDS011;7554;43.600;1.480;2023-07-13T01:28:42;2.60;;;1.47;;
14923;SDS011;7554;43.600;1.480;2023-07-13T01:31:10;2.60;;;1.60;;
14923;SDS011;7554;43.600;1.480;2023-07-13T01:33:37;4.20;;;1.60;;
14923;SDS011;7554;43.600;1.480;2023-07-13T01:36:06;6.33;;;1.67;;
14923;SDS011;7554;43.600;1.480;2023-07-13T01:38:35;3.57;;;1.40;;
14923;SDS011;7554;43.600;1.480;2023-07-13T01:41:04;4.40;;;1.63;;
14923;SDS011;7554;43.600;1.480;2023-07-13T01:43:32;3.87;;;1.53;;
14923;SDS011;7554;43.600;1.480;2023-07-13T01:45:59;3.57;;;1.80;;
14923;SDS011;7554;43.600;1.480;2023-07-13T01:48:26;3.83;;;1.70;;
14923;SDS011;7554;43.600;1.480;2023-07-13T01:50:54;4.17;;;1.43;;
14923;SDS011;7554;43.600;1.480;2023-07-13T01:53:21;2.37;;;1.37;;
14923;SDS011;7554;43.600;1.480;2023-07-13T01:55:50;5.20;;;1.70;;
14923;SDS011;7554;43.600;1.480;2023-07-13T01:58:16;5.40;;;1.57;;
14923;SDS011;7554;43.600;1.480;2023-07-13T02:00:43;5.60;;;1.73;;
14923;SDS011;7554;43.600;1.480;2023-07-13T02:03:11;3.43;;;1.70;;
14923;SDS011;7554;43.600;1.480;2023-07-13T02:05:43;3.73;;;1.70;;
14923;SDS011;7554;43.600;1.480;2023-07-13T02:08:10;3.90;;;1.70;;
14923;SDS011;7554;43.600;1.480;2023-07-13T02:10:37;4.97;;;2.00;;
14923;SDS011;7554;43.600;1.480;2023-07-13T02:13:07;3.03;;;1.93;;
14923;SDS011;7554;43.600;1.480;2023-07-13T02:15:37;4.83;;;1.57;;
14923;SDS011;7554;43.600;1.480;2023-07-13T02:18:05;6.50;;;1.50;;
14923;SDS011;7554;43.600;1.480;2023-07-13T02:20:32;5.73;;;1.70;;
14923;SDS011;7554;43.600;1.480;2023-07-13T02:23:00;3.87;;;1.53;;
14923;SDS011;7554;43.600;1.480;2023-07-13T02:25:27;5.00;;;1.73;;
14923;SDS011;7554;43.600;1.480;2023-07-13T02:27:54;3.83;;;1.60;;
14923;SDS011;7554;43.600;1.480;2023-07-13T02:30:23;4.37;;;1.70;;
14923;SDS011;7554;43.600;1.480;2023-07-13T02:32:50;2.93;;;1.53;;
14923;SDS011;7554;43.600;1.480;2023-07-13T02:35:18;4.80;;;1.57;;
14923;SDS011;7554;43.600;1.480;2023-07-13T02:37:45;4.17;;;1.67;;
14923;SDS011;7554;43.600;1.480;2023-07-13T02:40:12;5.47;;;1.60;;
14923;SDS011;7554;43.600;1.480;2023-07-13T02:42:39;4.13;;;1.50;;
14923;SDS011;7554;43.600;1.480;2023-07-13T02:45:07;3.80;;;1.50;;
14923;SDS011;7554;43.600;1.480;2023-07-13T02:47:37;5.37;;;1.90;;
14923;SDS011;7554;43.600;1.480;2023-07-13T02:50:05;3.63;;;1.67;;
14923;SDS011;7554;43.600;1.480;2023-07-13T02:52:32;3.87;;;1.47;;
14923;SDS011;7554;43.600;1.480;2023-07-13T02:55:00;6.87;;;1.90;;
14923;SDS011;7554;43.600;1.480;2023-07-13T02:57:27;4.40;;;1.33;;
14923;SDS011;7554;43.600;1.480;2023-07-13T02:59:55;7.00;;;1.73;;
14923;SDS011;7554;43.600;1.480;2023-07-13T03:02:22;3.03;;;1.40;;
14923;SDS011;7554;43.600;1.480;2023-07-13T03:04:51;6.47;;;1.67;;
14923;SDS011;7554;43.600;1.480;2023-07-13T03:07:18;7.23;;;1.57;;
14923;SDS011;7554;43.600;1.480;2023-07-13T03:09:46;5.93;;;1.20;;
14923;SDS011;7554;43.600;1.480;2023-07-13T03:12:13;7.73;;;1.43;;
14923;SDS011;7554;43.600;1.480;2023-07-13T03:14:40;8.13;;;1.83;;
14923;SDS011;7554;43.600;1.480;2023-07-13T03:17:08;5.23;;;1.50;;
14923;SDS011;7554;43.600;1.480;2023-07-13T03:19:35;4.67;;;1.63;;
14923;SDS011;7554;43.600;1.480;2023-07-13T03:22:04;5.37;;;1.70;;
14923;SDS011;7554;43.600;1.480;2023-07-13T03:24:32;4.00;;;1.60;;
14923;SDS011;7554;43.600;1.480;2023-07-13T03:27:01;6.00;;;1.63;;
14923;SDS011;7554;43.600;1.480;2023-07-13T03:29:29;5.27;;;1.33;;
14923;SDS011;7554;43.600;1.480;2023-07-13T03:31:56;5.50;;;1.53;;
14923;SDS011;7554;43.600;1.480;2023-07-13T03:34:23;4.07;;;1.70;;
14923;SDS011;7554;43.600;1.480;2023-07-13T03:36:53;6.50;;;1.47;;
14923;SDS011;7554;43.600;1.480;2023-07-13T03:39:22;6.53;;;1.53;;
14923;SDS011;7554;43.600;1.480;2023-07-13T03:41:50;3.63;;;1.70;;
14923;SDS011;7554;43.600;1.480;2023-07-13T03:44:17;5.73;;;1.33;;
14923;SDS011;7554;43.600;1.480;2023-07-13T03:46:45;3.47;;;1.50;;
14923;SDS011;7554;43.600;1.480;2023-07-13T03:49:12;4.30;;;1.60;;
14923;SDS011;7554;43.600;1.480;2023-07-13T03:51:39;7.07;;;1.87;;
14923;SDS011;7554;43.600;1.480;2023-07-13T03:54:07;6.83;;;1.40;;
14923;SDS011;7554;43.600;1.480;2023-07-13T03:56:35;5.43;;;1.80;;
14923;SDS011;7554;43.600;1.480;2023-07-13T03:59:03;6.43;;;1.30;;
14923;SDS011;7554;43.600;1.480;2023-07-13T04:01:30;3.87;;;1.27;;
14923;SDS011;7554;43.600;1.480;2023-07-13T04:03:58;4.20;;;1.30;;
14923;SDS011;7554;43.600;1.480;2023-07-13T04:06:26;6.73;;;1.87;;
14923;SDS011;7554;43.600;1.480;2023-07-13T04:08:55;8.83;;;2.80;;
14923;SDS011;7554;43.600;1.480;2023-07-13T04:11:24;6.57;;;1.70;;
14923;SDS011;7554;43.600;1.480;2023-07-13T04:13:55;5.53;;;1.40;;
14923;SDS011;7554;43.600;1.480;2023-07-13T04:16:23;6.07;;;1.83;;
14923;SDS011;7554;43.600;1.480;2023-07-13T04:18:50;3.30;;;1.20;;
14923;SDS011;7554;43.600;1.480;2023-07-13T04:21:20;8.27;;;1.60;;
14923;SDS011;7554;43.600;1.480;2023-07-13T04:23:47;6.20;;;1.43;;
14923;SDS011;7554;43.600;1.480;2023-07-13T04:26:15;7.73;;;1.73;;
14923;SDS011;7554;43.600;1.480;2023-07-13T04:28:42;5.67;;;1.50;;
14923;SDS011;7554;43.600;1.480;2023-07-13T04:31:11;4.27;;;1.63;;
14923;SDS011;7554;43.600;1.480;2023-07-13T04:33:38;4.37;;;1.60;;
14923;SDS011;7554;43.600;1.480;2023-07-13T04:36:05;4.13;;;1.40;;
14923;SDS011;7554;43.600;1.480;2023-07-13T04:38:34;4.43;;;1.50;;
14923;SDS011;7554;43.600;1.480;2023-07-13T04:41:03;5.53;;;1.60;;
14923;SDS011;7554;43.600;1.480;2023-07-13T04:43:32;5.07;;;1.53;;
14923;SDS011;7554;43.600;1.480;2023-07-13T04:46:02;5.17;;;1.27;;
14923;SDS011;7554;43.600;1.480;2023-07-13T04:48:33;4.53;;;1.40;;
14923;SDS011;7554;43.600;1.480;2023-07-13T04:51:00;8.10;;;1.87;;
14923;SDS011;7554;43.600;1.480;2023-07-13T04:53:28;6.57;;;1.80;;
14923;SDS011;7554;43.600;1.480;2023-07-13T04:55:57;4.93;;;1.47;;
14923;SDS011;7554;43.600;1.480;2023-07-13T04:58:24;5.13;;;1.30;;
14923;SDS011;7554;43.600;1.480;2023-07-13T05:00:52;5.03;;;1.57;;
14923;SDS011;7554;43.600;1.480;2023-07-13T05:03:20;3.93;;;1.30;;
14923;SDS011;7554;43.600;1.480;2023-07-13T05:05:56;5.43;;;1.30;;
14923;SDS011;7554;43.600;1.480;2023-07-13T05:08:23;8.13;;;1.67;;
14923;SDS011;7554;43.600;1.480;2023-07-13T05:10:51;4.97;;;1.53;;
14923;SDS011;7554;43.600;1.480;2023-07-13T05:13:19;4.07;;;1.37;;
14923;SDS011;7554;43.600;1.480;2023-07-13T05:15:47;2.00;;;1.03;;
14923;SDS011;7554;43.600;1.480;2023-07-13T05:18:22;3.57;;;1.53;;
14923;SDS011;7554;43.600;1.480;2023-07-13T05:20:56;3.17;;;1.40;;
14923;SDS011;7554;43.600;1.480;2023-07-13T05:23:24;6.97;;;1.63;;
14923;SDS011;7554;43.600;1.480;2023-07-13T05:25:52;6.33;;;1.20;;
14923;SDS011;7554;43.600;1.480;2023-07-13T05:28:19;4.77;;;1.40;;
14923;SDS011;7554;43.600;1.480;2023-07-13T05:30:46;6.33;;;1.43;;
14923;SDS011;7554;43.600;1.480;2023-07-13T05:33:14;4.83;;;1.40;;
14923;SDS011;7554;43.600;1.480;2023-07-13T05:35:42;7.27;;;1.40;;
14923;SDS011;7554;43.600;1.480;2023-07-13T05:38:10;2.57;;;1.00;;
14923;SDS011;7554;43.600;1.480;2023-07-13T05:40:38;5.63;;;1.83;;
14923;SDS011;7554;43.600;1.480;2023-07-13T05:43:05;4.43;;;1.13;;
14923;SDS011;7554;43.600;1.480;2023-07-13T05:45:33;3.10;;;1.40;;
14923;SDS011;7554;43.600;1.480;2023-07-13T05:48:00;3.00;;;1.10;;
14923;SDS011;7554;43.600;1.480;2023-07-13T05:50:27;5.53;;;1.43;;
14923;SDS011;7554;43.600;1.480;2023-07-13T05:52:55;5.87;;;1.40;;
14923;SDS011;7554;43.600;1.480;2023-07-13T05:55:23;5.27;;;1.17;;
14923;SDS011;7554;43.600;1.480;2023-07-13T05:57:50;2.87;;;1.03;;
14923;SDS011;7554;43.600;1.480;2023-07-13T06:00:18;4.43;;;1.03;;
14923;SDS011;7554;43.600;1.480;2023-07-13T06:02:45;4.57;;;1.00;;
14923;SDS011;7554;43.600;1.480;2023-07-13T06:05:13;3.78;;;1.25;;
14923;SDS011;7554;43.600;1.480;2023-07-13T06:07:40;4.43;;;1.30;;
14923;SDS011;7554;43.600;1.480;2023-07-13T06:10:08;7.43;;;1.23;;
14923;SDS011;7554;43.600;1.480;2023-07-13T06:12:37;4.25;;;1.30;;
14923;SDS011;7554;43.600;1.480;2023-07-13T06:15:05;5.68;;;1.42;;
14923;SDS011;7554;43.600;1.480;2023-07-13T06:17:33;3.85;;;1.20;;
14923;SDS011;7554;43.600;1.480;2023-07-13T06:20:01;3.17;;;1.33;;
14923;SDS011;7554;43.600;1.480;2023-07-13T06:22:28;6.40;;;1.20;;
14923;SDS011;7554;43.600;1.480;2023-07-13T06:24:55;4.60;;;1.10;;
14923;SDS011;7554;43.600;1.480;2023-07-13T06:27:22;4.20;;;1.20;;
14923;SDS011;7554;43.600;1.480;2023-07-13T06:29:52;4.57;;;1.30;;
14923;SDS011;7554;43.600;1.480;2023-07-13T06:32:19;4.43;;;1.20;;
14923;SDS011;7554;43.600;1.480;2023-07-13T06:34:47;7.05;;;1.25;;
14923;SDS011;7554;43.600;1.480;2023-07-13T06:37:14;2.97;;;1.00;;
14923;SDS011;7554;43.600;1.480;2023-07-13T06:39:41;3.85;;;1.08;;
14923;SDS011;7554;43.600;1.480;2023-07-13T06:42:09;3.22;;;1.10;;
14923;SDS011;7554;43.600;1.480;2023-07-13T06:44:36;3.97;;;1.10;;
14923;SDS011;7554;43.600;1.480;2023-07-13T06:47:05;5.32;;;1.10;;
14923;SDS011;7554;43.600;1.480;2023-07-13T06:49:33;8.18;;;1.25;;
14923;SDS011;7554;43.600;1.480;2023-07-13T06:52:00;5.05;;;1.48;;
14923;SDS011;7554;43.600;1.480;2023-07-13T06:54:28;4.75;;;0.98;;
14923;SDS011;7554;43.600;1.480;2023-07-13T06:56:56;6.00;;;1.20;;
14923;SDS011;7554;43.600;1.480;2023-07-13T06:59:23;5.35;;;1.30;;
14923;SDS011;7554;43.600;1.480;2023-07-13T07:01:50;3.95;;;1.10;;
14923;SDS011;7554;43.600;1.480;2023-07-13T07:04:19;9.68;;;1.30;;
14923;SDS011;7554;43.600;1.480;2023-07-13T07:06:47;5.50;;;1.10;;
14923;SDS011;7554;43.600;1.480;2023-07-13T07:09:14;4.85;;;1.10;;
14923;SDS011;7554;43.600;1.480;2023-07-13T07:11:42;3.50;;;1.00;;
14923;SDS011;7554;43.600;1.480;2023-07-13T07:14:09;5.07;;;1.30;;
14923;SDS011;7554;43.600;1.480;2023-07-13T07:16:37;6.45;;;1.15;;
14923;SDS011;7554;43.600;1.480;2023-07-13T07:19:04;5.97;;;1.30;;
14923;SDS011;7554;43.600;1.480;2023-07-13T07:21:33;4.65;;;1.13;;
14923;SDS011;7554;43.600;1.480;2023-07-13T07:24:00;6.20;;;1.40;;
14923;SDS011;7554;43.600;1.480;2023-07-13T07:26:29;2.85;;;1.20;;
14923;SDS011;7554;43.600;1.480;2023-07-13T07:28:57;10.68;;;1.70;;
14923;SDS011;7554;43.600;1.480;2023-07-13T07:31:24;4.50;;;1.13;;
14923;SDS011;7554;43.600;1.480;2023-07-13T07:33:51;12.07;;;1.53;;
14923;SDS011;7554;43.600;1.480;2023-07-13T07:36:18;8.90;;;1.70;;
14923;SDS011;7554;43.600;1.480;2023-07-13T07:38:47;3.95;;;1.08;;
14923;SDS011;7554;43.600;1.480;2023-07-13T07:41:14;5.23;;;1.10;;
14923;SDS011;7554;43.600;1.480;2023-07-13T07:43:42;4.53;;;1.30;;
14923;SDS011;7554;43.600;1.480;2023-07-13T07:46:09;5.23;;;1.40;;
14923;SDS011;7554;43.600;1.480;2023-07-13T07:48:36;3.33;;;0.80;;
14923;SDS011;7554;43.600;1.480;2023-07-13T07:51:04;12.10;;;1.13;;
14923;SDS011;7554;43.600;1.480;2023-07-13T07:53:31;2.60;;;1.20;;
14923;SDS011;7554;43.600;1.480;2023-07-13T07:55:59;5.00;;;1.13;;
14923;SDS011;7554;43.600;1.480;2023-07-13T07:58:27;5.22;;;1.08;;
14923;SDS011;7554;43.600;1.480;2023-07-13T08:00:54;5.90;;;1.40;;
14923;SDS011;7554;43.600;1.480;2023-07-13T08:03:29;3.88;;;1.20;;
14923;SDS011;7554;43.600;1.480;2023-07-13T08:05:57;3.53;;;0.77;;
14923;SDS011;7554;43.600;1.480;2023-07-13T08:08:24;4.93;;;1.05;;
14923;SDS011;7554;43.600;1.480;2023-07-13T08:10:52;3.97;;;0.77;;
14923;SDS011;7554;43.600;1.480;2023-07-13T08:13:21;2.47;;;0.77;;
14923;SDS011;7554;43.600;1.480;2023-07-13T08:15:48;5.55;;;1.10;;
14923;SDS011;7554;43.600;1.480;2023-07-13T08:18:16;4.43;;;1.00;;
14923;SDS011;7554;43.600;1.480;2023-07-13T08:20:43;1.20;;;0.47;;
14923;SDS011;7554;43.600;1.480;2023-07-13T08:23:10;5.68;;;0.98;;
14923;SDS011;7554;43.600;1.480;2023-07-13T08:25:37;2.75;;;0.82;;
14923;SDS011;7554;43.600;1.480;2023-07-13T08:28:05;5.07;;;0.95;;
14923;SDS011;7554;43.600;1.480;2023-07-13T08:30:34;2.35;;;0.80;;
14923;SDS011;7554;43.600;1.480;2023-07-13T08:33:01;2.53;;;0.77;;
14923;SDS011;7554;43.600;1.480;2023-07-13T08:35:29;4.57;;;1.25;;
14923;SDS011;7554;43.600;1.480;2023-07-13T08:37:56;2.58;;;0.80;;
14923;SDS011;7554;43.600;1.480;2023-07-13T08:40:24;2.42;;;0.93;;
14923;SDS011;7554;43.600;1.480;2023-07-13T08:42:53;2.78;;;0.82;;
14923;SDS011;7554;43.600;1.480;2023-07-13T08:45:23;6.03;;;0.88;;
14923;SDS011;7554;43.600;1.480;2023-07-13T08:48:00;5.10;;;1.13;;
14923;SDS011;7554;43.600;1.480;2023-07-13T08:50:31;3.30;;;0.90;;
14923;SDS011;7554;43.600;1.480;2023-07-13T08:53:01;4.25;;;0.80;;
14923;SDS011;7554;43.600;1.480;2023-07-13T08:55:31;4.55;;;0.80;;
14923;SDS011;7554;43.600;1.480;2023-07-13T08:58:05;4.82;;;1.10;;
14923;SDS011;7554;43.600;1.480;2023-07-13T09:00:40;4.47;;;1.00;;
14923;SDS011;7554;43.600;1.480;2023-07-13T09:03:18;3.50;;;0.80;;
14923;SDS011;7554;43.600;1.480;2023-07-13T09:05:50;3.00;;;0.82;;
14923;SDS011;7554;43.600;1.480;2023-07-13T09:08:29;3.20;;;0.95;;
14923;SDS011;7554;43.600;1.480;2023-07-13T09:11:13;4.20;;;0.85;;
14923;SDS011;7554;43.600;1.480;2023-07-13T09:13:50;1.77;;;0.68;;
14923;SDS011;7554;43.600;1.480;2023-07-13T09:16:27;2.72;;;1.10;;
14923;SDS011;7554;43.600;1.480;2023-07-13T09:18:56;5.13;;;0.75;;
14923;SDS011;7554;43.600;1.480;2023-07-13T09:21:29;3.60;;;1.00;;
14923;SDS011;7554;43.600;1.480;2023-07-13T09:23:59;3.65;;;0.98;;
14923;SDS011;7554;43.600;1.480;2023-07-13T09:26:48;2.78;;;0.70;;
14923;SDS011;7554;43.600;1.480;2023-07-13T09:29:17;4.38;;;0.95;;
14923;SDS011;7554;43.600;1.480;2023-07-13T09:31:52;3.83;;;1.02;;
14923;SDS011;7554;43.600;1.480;2023-07-13T09:34:23;2.35;;;0.75;;
14923;SDS011;7554;43.600;1.480;2023-07-13T09:36:50;6.10;;;0.80;;
14923;SDS011;7554;43.600;1.480;2023-07-13T09:39:20;3.17;;;1.08;;
14923;SDS011;7554;43.600;1.480;2023-07-13T09:41:54;3.22;;;0.90;;
14923;SDS011;7554;43.600;1.480;2023-07-13T09:44:30;4.30;;;1.10;;
14923;SDS011;7554;43.600;1.480;2023-07-13T09:47:00;2.05;;;0.63;;
14923;SDS011;7554;43.600;1.480;2023-07-13T09:49:33;11.90;;;1.77;;
14923;SDS011;7554;43.600;1.480;2023-07-13T09:52:03;10.15;;;1.00;;
14923;SDS011;7554;43.600;1.480;2023-07-13T09:54:33;5.25;;;1.42;;
14923;SDS011;7554;43.600;1.480;2023-07-13T09:57:03;9.35;;;1.40;;
14923;SDS011;7554;43.600;1.480;2023-07-13T09:59:40;6.70;;;2.05;;
14923;SDS011;7554;43.600;1.480;2023-07-13T10:04:57;3.33;;;0.80;;
14923;SDS011;7554;43.600;1.480;2023-07-13T10:07:25;3.28;;;0.90;;
14923;SDS011;7554;43.600;1.480;2023-07-13T10:09:53;2.97;;;1.00;;
14923;SDS011;7554;43.600;1.480;2023-07-13T10:12:20;8.27;;;1.52;;
14923;SDS011;7554;43.600;1.480;2023-07-13T10:14:50;3.40;;;1.27;;
14923;SDS011;7554;43.600;1.480;2023-07-13T10:17:25;4.93;;;0.90;;
14923;SDS011;7554;43.600;1.480;2023-07-13T10:19:57;1.83;;;0.80;;
14923;SDS011;7554;43.600;1.480;2023-07-13T10:22:35;3.20;;;1.20;;
14923;SDS011;7554;43.600;1.480;2023-07-13T10:25:12;5.63;;;0.85;;
14923;SDS011;7554;43.600;1.480;2023-07-13T10:27:43;1.63;;;0.80;;
14923;SDS011;7554;43.600;1.480;2023-07-13T10:30:13;2.42;;;1.00;;
14923;SDS011;7554;43.600;1.480;2023-07-13T10:32:45;7.75;;;0.98;;
14923;SDS011;7554;43.600;1.480;2023-07-13T10:35:15;3.00;;;0.80;;
14923;SDS011;7554;43.600;1.480;2023-07-13T10:37:46;3.13;;;0.80;;
14923;SDS011;7554;43.600;1.480;2023-07-13T10:40:18;2.03;;;0.98;;
14923;SDS011;7554;43.600;1.480;2023-07-13T10:42:51;2.08;;;0.90;;
14923;SDS011;7554;43.600;1.480;2023-07-13T10:45:22;4.20;;;1.00;;
14923;SDS011;7554;43.600;1.480;2023-07-13T10:47:51;2.72;;;1.02;;
14923;SDS011;7554;43.600;1.480;2023-07-13T10:50:23;3.90;;;1.02;;
14923;SDS011;7554;43.600;1.480;2023-07-13T10:52:53;5.32;;;1.00;;
14923;SDS011;7554;43.600;1.480;2023-07-13T10:55:33;2.40;;;0.82;;
14923;SDS011;7554;43.600;1.480;2023-07-13T10:58:03;4.15;;;0.88;;
14923;SDS011;7554;43.600;1.480;2023-07-13T11:03:28;3.60;;;0.85;;
14923;SDS011;7554;43.600;1.480;2023-07-13T11:06:07;2.50;;;1.10;;
14923;SDS011;7554;43.600;1.480;2023-07-13T11:08:36;2.20;;;0.95;;
14923;SDS011;7554;43.600;1.480;2023-07-13T11:11:34;2.63;;;0.80;;
14923;SDS011;7554;43.600;1.480;2023-07-13T11:14:03;5.97;;;1.40;;
14923;SDS011;7554;43.600;1.480;2023-07-13T11:16:51;2.75;;;0.93;;
14923;SDS011;7554;43.600;1.480;2023-07-13T11:22:15;3.80;;;0.80;;
14923;SDS011;7554;43.600;1.480;2023-07-13T11:24:48;3.08;;;0.95;;
14923;SDS011;7554;43.600;1.480;2023-07-13T11:27:27;2.83;;;0.88;;
14923;SDS011;7554;43.600;1.480;2023-07-13T11:30:18;2.13;;;0.88;;
14923;SDS011;7554;43.600;1.480;2023-07-13T11:32:50;2.50;;;0.75;;
14923;SDS011;7554;43.600;1.480;2023-07-13T11:35:31;1.60;;;0.73;;
14923;SDS011;7554;43.600;1.480;2023-07-13T11:38:03;3.50;;;1.10;;
14923;SDS011;7554;43.600;1.480;2023-07-13T11:40:41;3.97;;;1.30;;
14923;SDS011;7554;43.600;1.480;2023-07-13T11:43:12;3.13;;;1.00;;
14923;SDS011;7554;43.600;1.480;2023-07-13T11:45:40;3.65;;;1.05;;
14923;SDS011;7554;43.600;1.480;2023-07-13T11:48:21;3.63;;;1.10;;
14923;SDS011;7554;43.600;1.480;2023-07-13T11:50:55;3.10;;;1.02;;
14923;SDS011;7554;43.600;1.480;2023-07-13T11:53:30;1.80;;;0.80;;
14923;SDS011;7554;43.600;1.480;2023-07-13T11:56:04;3.13;;;1.00;;
14923;SDS011;7554;43.600;1.480;2023-07-13T11:58:32;3.90;;;1.10;;
14923;SDS011;7554;43.600;1.480;2023-07-13T12:01:01;4.78;;;0.80;;
14923;SDS011;7554;43.600;1.480;2023-07-13T12:03:31;1.40;;;0.70;;
14923;SDS011;7554;43.600;1.480;2023-07-13T12:06:01;4.40;;;0.90;;
14923;SDS011;7554;43.600;1.480;2023-07-13T12:08:37;6.93;;;0.93;;
14923;SDS011;7554;43.600;1.480;2023-07-13T12:11:09;3.53;;;0.93;;
14923;SDS011;7554;43.600;1.480;2023-07-13T12:13:41;4.88;;;1.02;;
14923;SDS011;7554;43.600;1.480;2023-07-13T12:16:14;3.17;;;1.20;;
14923;SDS011;7554;43.600;1.480;2023-07-13T12:18:43;3.30;;;0.80;;
14923;SDS011;7554;43.600;1.480;2023-07-13T12:21:16;2.42;;;0.90;;
14923;SDS011;7554;43.600;1.480;2023-07-13T12:23:47;3.17;;;1.02;;
14923;SDS011;7554;43.600;1.480;2023-07-13T12:26:15;3.28;;;0.82;;
14923;SDS011;7554;43.600;1.480;2023-07-13T12:28:45;5.53;;;1.20;;
14923;SDS011;7554;43.600;1.480;2023-07-13T12:31:26;3.75;;;0.90;;
14923;SDS011;7554;43.600;1.480;2023-07-13T12:33:58;1.92;;;0.70;;
14923;SDS011;7554;43.600;1.480;2023-07-13T12:36:29;2.15;;;0.80;;
14923;SDS011;7554;43.600;1.480;2023-07-13T12:39:16;2.17;;;1.15;;
14923;SDS011;7554;43.600;1.480;2023-07-13T12:41:45;4.05;;;0.80;;
14923;SDS011;7554;43.600;1.480;2023-07-13T12:44:14;2.88;;;1.00;;
14923;SDS011;7554;43.600;1.480;2023-07-13T12:46:53;2.67;;;0.93;;
14923;SDS011;7554;43.600;1.480;2023-07-13T12:49:24;3.97;;;1.20;;
14923;SDS011;7554;43.600;1.480;2023-07-13T12:51:57;2.58;;;0.77;;
14923;SDS011;7554;43.600;1.480;2023-07-13T12:54:27;4.20;;;0.98;;
14923;SDS011;7554;43.600;1.480;2023-07-13T12:56:56;2.42;;;0.80;;
14923;SDS011;7554;43.600;1.480;2023-07-13T12:59:26;3.65;;;0.70;;
14923;SDS011;7554;43.600;1.480;2023-07-13T13:01:58;4.18;;;0.90;;
14923;SDS011;7554;43.600;1.480;2023-07-13T13:04:27;3.25;;;1.00;;
14923;SDS011;7554;43.600;1.480;2023-07-13T13:07:02;3.63;;;1.00;;
14923;SDS011;7554;43.600;1.480;2023-07-13T13:09:31;3.53;;;1.00;;
14923;SDS011;7554;43.600;1.480;2023-07-13T13:11:59;5.50;;;0.90;;
14923;SDS011;7554;43.600;1.480;2023-07-13T13:14:26;2.33;;;0.90;;
14923;SDS011;7554;43.600;1.480;2023-07-13T13:16:53;3.08;;;1.20;;
14923;SDS011;7554;43.600;1.480;2023-07-13T13:19:23;3.35;;;0.88;;
14923;SDS011;7554;43.600;1.480;2023-07-13T13:21:52;6.25;;;1.00;;
14923;SDS011;7554;43.600;1.480;2023-07-13T13:24:22;8.50;;;2.08;;
14923;SDS011;7554;43.600;1.480;2023-07-13T13:26:52;2.47;;;1.00;;
14923;SDS011;7554;43.600;1.480;2023-07-13T13:29:22;2.33;;;0.70;;
14923;SDS011;7554;43.600;1.480;2023-07-13T13:31:51;4.07;;;1.08;;
14923;SDS011;7554;43.600;1.480;2023-07-13T13:34:19;3.17;;;0.90;;
14923;SDS011;7554;43.600;1.480;2023-07-13T13:36:48;2.25;;;0.80;;
14923;SDS011;7554;43.600;1.480;2023-07-13T13:39:20;3.03;;;1.13;;
14923;SDS011;7554;43.600;1.480;2023-07-13T13:41:50;3.40;;;1.00;;
14923;SDS011;7554;43.600;1.480;2023-07-13T13:44:19;3.85;;;1.02;;
14923;SDS011;7554;43.600;1.480;2023-07-13T13:46:49;4.20;;;0.98;;
14923;SDS011;7554;43.600;1.480;2023-07-13T13:49:19;4.10;;;1.05;;
14923;SDS011;7554;43.600;1.480;2023-07-13T13:51:50;2.65;;;0.95;;
14923;SDS011;7554;43.600;1.480;2023-07-13T13:54:18;1.92;;;0.90;;
14923;SDS011;7554;43.600;1.480;2023-07-13T13:56:47;3.00;;;0.73;;
14923;SDS011;7554;43.600;1.480;2023-07-13T13:59:16;2.90;;;1.13;;
14923;SDS011;7554;43.600;1.480;2023-07-13T14:01:45;3.70;;;0.80;;
14923;SDS011;7554;43.600;1.480;2023-07-13T14:04:15;2.60;;;1.20;;
14923;SDS011;7554;43.600;1.480;2023-07-13T14:06:44;4.95;;;1.13;;
14923;SDS011;7554;43.600;1.480;2023-07-13T14:09:12;1.98;;;0.90;;
14923;SDS011;7554;43.600;1.480;2023-07-13T14:11:43;3.33;;;0.80;;
14923;SDS011;7554;43.600;1.480;2023-07-13T14:14:12;5.05;;;1.15;;
14923;SDS011;7554;43.600;1.480;2023-07-13T14:16:46;5.50;;;0.95;;
14923;SDS011;7554;43.600;1.480;2023-07-13T14:19:18;3.85;;;1.05;;
14923;SDS011;7554;43.600;1.480;2023-07-13T14:21:46;1.77;;;0.50;;
14923;SDS011;7554;43.600;1.480;2023-07-13T14:24:14;6.20;;;0.93;;
14923;SDS011;7554;43.600;1.480;2023-07-13T14:26:41;2.88;;;0.70;;
14923;SDS011;7554;43.600;1.480;2023-07-13T14:29:12;2.63;;;0.95;;
14923;SDS011;7554;43.600;1.480;2023-07-13T14:31:43;3.42;;;0.90;;
14923;SDS011;7554;43.600;1.480;2023-07-13T14:34:12;3.03;;;0.68;;
14923;SDS011;7554;43.600;1.480;2023-07-13T14:36:40;3.85;;;1.10;;
14923;SDS011;7554;43.600;1.480;2023-07-13T14:39:11;3.90;;;0.80;;
14923;SDS011;7554;43.600;1.480;2023-07-13T14:41:40;4.35;;;0.80;;
14923;SDS011;7554;43.600;1.480;2023-07-13T14:44:11;2.92;;;0.85;;
14923;SDS011;7554;43.600;1.480;2023-07-13T14:46:39;5.68;;;0.90;;
14923;SDS011;7554;43.600;1.480;2023-07-13T14:49:11;1.92;;;0.68;;
14923;SDS011;7554;43.600;1.480;2023-07-13T14:51:44;2.40;;;1.08;;
14923;SDS011;7554;43.600;1.480;2023-07-13T14:54:11;2.08;;;0.73;;
14923;SDS011;7554;43.600;1.480;2023-07-13T14:56:39;2.80;;;0.98;;
14923;SDS011;7554;43.600;1.480;2023-07-13T14:59:07;5.40;;;1.05;;
14923;SDS011;7554;43.600;1.480;2023-07-13T15:01:34;1.73;;;0.60;;
14923;SDS011;7554;43.600;1.480;2023-07-13T15:04:02;5.90;;;1.10;;
14923;SDS011;7554;43.600;1.480;2023-07-13T15:06:31;4.10;;;1.23;;
14923;SDS011;7554;43.600;1.480;2023-07-13T15:09:18;3.60;;;0.90;;
14923;SDS011;7554;43.600;1.480;2023-07-13T15:11:45;5.80;;;1.40;;
14923;SDS011;7554;43.600;1.480;2023-07-13T15:14:13;4.05;;;1.30;;
14923;SDS011;7554;43.600;1.480;2023-07-13T15:16:40;2.47;;;0.88;;
14923;SDS011;7554;43.600;1.480;2023-07-13T15:19:08;2.63;;;0.95;;
14923;SDS011;7554;43.600;1.480;2023-07-13T15:21:38;3.00;;;0.90;;
14923;SDS011;7554;43.600;1.480;2023-07-13T15:24:05;3.03;;;1.13;;